Kingsport, Tennessee
Current Conditions -  °F | °C
As of 6:11 AM on Friday 31 Oct 2014 (Local Time) from KTRI Reporting Station
Haze Haze  
Wind Chill: 35°   Ceiling: 3000
Heat Index: 35°   Visibility: 2mi
Dew Point: 34°   Wind: 0mph
Humidity: 96%   Direction: NA
Pressure: 29.97"   Gusts: NA
Location:  36.55°N, 82.56°W
Report Text: KTRI 311011Z 00000KT 2SM BR SCT001 BKN030 OVC250 02/01 A2997 RMK AO2 SFC VIS 3 T00170011
Loading
Personal Weather Stations






























Interactive Weather Map
Tropical Storm Tracking
New forecast layout! Learn more

10-Day Weather Forecast

Advertisements
Track Severe Weather on mobile